createdAt,value
2023-02-16T00:04:01.627Z,27.58
2023-02-16T00:10:06.890Z,28.33
2023-02-16T00:16:13.838Z,31.95
2023-02-16T00:22:17.331Z,32.58
2023-02-16T00:28:22.557Z,33.13
2023-02-16T00:34:30.239Z,33.38
2023-02-16T00:40:33.697Z,33.40
2023-02-16T00:46:38.544Z,32.10
2023-02-16T00:52:43.293Z,29.63
2023-02-16T00:58:46.843Z,31.00
2023-02-16T01:04:51.931Z,29.92
2023-02-16T01:11:11.235Z,29.65
2023-02-16T01:17:14.869Z,28.55
2023-02-16T01:23:19.631Z,28.65
2023-02-16T01:29:23.689Z,29.88
2023-02-16T01:35:30.710Z,28.08
2023-02-16T01:41:46.258Z,29.27
2023-02-16T01:47:51.759Z,29.70
2023-02-16T01:53:57.039Z,30.85
2023-02-16T02:00:14.235Z,28.90
2023-02-16T02:06:19.829Z,30.15
2023-02-16T02:12:26.159Z,30.60
2023-02-16T02:18:30.923Z,30.02
2023-02-16T02:24:46.867Z,31.38
2023-02-16T02:30:55.609Z,30.23
2023-02-16T02:37:05.283Z,30.13
2023-02-16T02:43:12.095Z,30.50
2023-02-16T02:49:17.241Z,29.85
2023-02-16T02:55:38.297Z,30.95
2023-02-16T03:01:44.444Z,30.88
2023-02-16T03:07:50.691Z,30.83
2023-02-16T03:13:56.993Z,29.52
2023-02-16T03:20:18.998Z,30.33
2023-02-16T03:26:42.065Z,30.15
2023-02-16T03:32:45.765Z,30.65
2023-02-16T03:38:49.303Z,30.00
2023-02-16T03:44:54.556Z,30.05
2023-02-16T03:50:58.013Z,30.30
2023-02-16T03:57:01.477Z,29.60
2023-02-16T04:03:06.557Z,30.60
2023-02-16T04:09:11.026Z,30.35
2023-02-16T04:15:15.855Z,30.23
2023-02-16T04:21:20.674Z,31.10
2023-02-16T04:27:24.055Z,30.73
2023-02-16T04:33:27.458Z,29.30
2023-02-16T04:39:32.191Z,31.15
2023-02-16T04:45:35.758Z,30.05
2023-02-16T04:51:39.944Z,30.27
2023-02-16T04:57:44.758Z,29.55
2023-02-16T05:03:48.491Z,29.05
2023-02-16T05:09:51.862Z,29.92
2023-02-16T05:15:57.031Z,28.60
2023-02-16T05:22:00.696Z,29.50
2023-02-16T05:28:04.177Z,28.17
2023-02-16T05:34:08.967Z,30.73
2023-02-16T05:40:13.231Z,28.77
2023-02-16T05:46:16.682Z,29.70
2023-02-16T05:52:21.704Z,28.05
2023-02-16T05:58:25.078Z,28.40
2023-02-16T06:04:28.639Z,30.00
2023-02-16T06:10:33.365Z,30.73
2023-02-16T06:16:37.494Z,27.75
2023-02-16T06:22:40.941Z,27.75
2023-02-16T06:28:45.992Z,27.65
2023-02-16T06:34:49.384Z,28.08
2023-02-16T06:40:53.498Z,26.92
2023-02-16T06:46:58.421Z,27.80
2023-02-16T06:53:01.808Z,26.15
2023-02-16T06:59:05.283Z,26.95
2023-02-16T07:05:10.523Z,25.98
2023-02-16T07:11:13.904Z,26.50
2023-02-16T07:17:17.361Z,27.55
2023-02-16T07:23:22.240Z,25.67
2023-02-16T07:29:25.599Z,26.45
2023-02-16T07:35:29.285Z,27.48
2023-02-16T07:41:34.125Z,26.05
2023-02-16T07:47:37.536Z,26.70
2023-02-16T07:53:40.910Z,26.80
2023-02-16T07:59:45.697Z,26.52
2023-02-16T08:05:49.080Z,25.80
2023-02-16T08:11:52.459Z,25.38
2023-02-16T08:17:57.718Z,25.00
2023-02-16T08:24:02.188Z,24.35
2023-02-16T08:30:06.190Z,22.95
2023-02-16T08:36:17.865Z,27.30
2023-02-16T08:42:21.325Z,21.48
2023-02-16T08:48:24.747Z,21.08
2023-02-16T08:54:30.986Z,24.98
2023-02-16T09:00:38.667Z,22.60
2023-02-16T09:06:44.141Z,22.95
2023-02-16T09:12:49.973Z,21.90
2023-02-16T09:18:54.184Z,25.27
2023-02-16T09:24:57.560Z,23.85
2023-02-16T09:31:02.599Z,23.00
2023-02-16T09:37:06.049Z,22.10
2023-02-16T09:43:12.231Z,20.35
2023-02-16T09:49:23.947Z,19.65
2023-02-16T09:55:30.607Z,22.33
2023-02-16T10:01:36.829Z,19.23
2023-02-16T10:07:46.680Z,16.92
2023-02-16T10:13:54.149Z,19.67
2023-02-16T10:19:59.386Z,19.83
2023-02-16T10:26:07.160Z,22.25
2023-02-16T10:32:16.704Z,23.33
2023-02-16T10:38:24.369Z,18.95
2023-02-16T10:44:32.910Z,17.10
2023-02-16T10:50:39.431Z,15.13
2023-02-16T10:56:54.354Z,15.38
2023-02-16T11:03:02.887Z,18.00
2023-02-16T11:09:06.765Z,21.35
2023-02-16T11:15:23.765Z,16.88
2023-02-16T11:21:42.450Z,16.20
2023-02-16T11:27:53.772Z,15.80
2023-02-16T11:33:58.192Z,11.60
2023-02-16T11:40:04.269Z,15.30
2023-02-16T11:46:13.495Z,13.18
2023-02-16T11:52:22.250Z,9.48
2023-02-16T11:58:26.369Z,10.60
2023-02-16T12:04:36.969Z,16.92
2023-02-16T12:10:41.293Z,15.63
2023-02-16T12:16:48.816Z,15.88
2023-02-16T12:22:59.441Z,12.00
2023-02-16T12:29:11.229Z,15.57
2023-02-16T12:35:21.876Z,15.38
2023-02-16T12:41:30.402Z,13.82
2023-02-16T12:47:37.102Z,17.10
2023-02-16T12:53:43.112Z,11.65
2023-02-16T12:59:49.713Z,13.15
2023-02-16T13:05:55.274Z,9.70
2023-02-16T13:12:02.391Z,12.90
2023-02-16T13:18:09.193Z,14.75
2023-02-16T13:24:16.813Z,13.73
2023-02-16T13:30:36.889Z,13.50
2023-02-16T13:36:55.326Z,16.02
2023-02-16T13:43:14.662Z,11.90
2023-02-16T13:49:31.311Z,13.35
2023-02-16T13:55:37.487Z,9.60
2023-02-16T14:01:44.083Z,8.98
2023-02-16T14:07:47.526Z,9.80
2023-02-16T14:13:52.380Z,8.27
2023-02-16T14:19:58.412Z,8.07
2023-02-16T14:26:06.551Z,8.27
2023-02-16T14:32:23.466Z,8.48
2023-02-16T14:38:30.568Z,9.35
2023-02-16T14:44:42.302Z,11.00
2023-02-16T14:50:54.238Z,10.10
2023-02-16T14:57:02.159Z,7.88
2023-02-16T15:03:16.987Z,7.72
2023-02-16T15:09:23.485Z,5.57
2023-02-16T15:15:31.499Z,5.25
2023-02-16T15:21:34.943Z,6.00
2023-02-16T15:27:38.324Z,5.55
2023-02-16T15:33:44.056Z,4.85
2023-02-16T15:40:12.133Z,5.10
2023-02-16T15:46:16.322Z,4.72
2023-02-16T15:52:22.955Z,4.70
2023-02-16T15:58:27.916Z,6.00
2023-02-16T16:04:32.501Z,7.03
2023-02-16T16:10:41.312Z,6.40
2023-02-16T16:16:46.019Z,7.23
2023-02-16T16:22:56.644Z,7.82
2023-02-16T16:29:01.959Z,6.93
2023-02-16T16:35:19.803Z,7.90
2023-02-16T16:41:28.077Z,5.30
2023-02-16T16:47:35.620Z,6.15
2023-02-16T16:53:43.774Z,6.15
2023-02-16T16:59:47.451Z,6.20
2023-02-16T17:05:52.474Z,6.82
2023-02-16T17:11:55.946Z,5.63
2023-02-16T17:17:59.612Z,5.85
2023-02-16T17:24:04.448Z,9.43
2023-02-16T17:30:08.459Z,7.25
2023-02-16T17:36:14.715Z,7.90
2023-02-16T17:42:19.521Z,7.78
2023-02-16T17:48:24.175Z,6.65
2023-02-16T17:54:27.598Z,7.28
2023-02-16T18:00:32.556Z,8.32
2023-02-16T18:06:35.967Z,7.22
2023-02-16T18:12:39.456Z,8.02
2023-02-16T18:18:44.252Z,7.07
2023-02-16T18:24:47.740Z,6.47
2023-02-16T18:30:51.284Z,5.05
2023-02-16T18:36:56.070Z,5.13
2023-02-16T18:42:59.834Z,4.20
2023-02-16T18:49:04.168Z,5.00
2023-02-16T18:55:09.395Z,3.88
2023-02-16T19:01:13.920Z,4.03
2023-02-16T19:07:17.338Z,3.88
2023-02-16T19:13:22.075Z,4.28
2023-02-16T19:19:25.492Z,3.90
2023-02-16T19:25:29.379Z,3.67
2023-02-16T19:31:35.477Z,3.35
2023-02-16T19:37:38.962Z,3.10
2023-02-16T19:43:42.685Z,2.95
2023-02-16T19:49:47.540Z,3.63
2023-02-16T19:55:52.387Z,2.83
2023-02-16T20:01:55.897Z,2.90
2023-02-16T20:08:00.730Z,2.70
2023-02-16T20:14:04.225Z,2.70
2023-02-16T20:20:08.211Z,2.90
2023-02-16T20:26:14.525Z,3.63
2023-02-16T20:32:18.044Z,2.63
2023-02-16T20:38:21.513Z,3.38
2023-02-16T20:44:26.344Z,2.92
2023-02-16T20:50:29.985Z,2.40
2023-02-16T20:56:33.665Z,2.60
2023-02-16T21:02:38.488Z,2.58
2023-02-16T21:08:42.031Z,2.13
2023-02-16T21:14:45.730Z,2.20
2023-02-16T21:20:51.360Z,2.10
2023-02-16T21:26:54.751Z,2.38
2023-02-16T21:32:58.167Z,2.25
2023-02-16T21:39:04.920Z,2.40
2023-02-16T21:45:14.943Z,2.35
2023-02-16T21:51:19.556Z,2.60
2023-02-16T21:57:26.511Z,2.55
2023-02-16T22:03:29.937Z,2.45
2023-02-16T22:09:33.371Z,2.67
2023-02-16T22:15:38.964Z,2.55
2023-02-16T22:21:43.450Z,3.30
2023-02-16T22:27:46.964Z,3.80
2023-02-16T22:33:56.291Z,3.95
2023-02-16T22:39:59.669Z,4.70
2023-02-16T22:46:06.530Z,3.30
2023-02-16T22:52:11.568Z,5.10
2023-02-16T22:58:15.531Z,4.22
2023-02-16T23:04:19.236Z,4.00
2023-02-16T23:10:24.071Z,4.10
2023-02-16T23:16:28.177Z,4.13
2023-02-16T23:22:31.744Z,3.00
2023-02-16T23:28:36.519Z,3.50
2023-02-16T23:34:39.899Z,3.65
2023-02-16T23:40:43.380Z,3.63
2023-02-16T23:46:48.228Z,4.22
2023-02-16T23:52:51.649Z,5.38
2023-02-16T23:58:57.934Z,5.50
